Aviation Digital Data Service (ADDS)

Output produced by METARs form (2035 UTC 20 November 2014)
found at http://www.aviationweather.gov/adds/metars/
 
KILG 201951Z 26012KT 10SM BKN075 10/M05 A2989 RMK AO2 SLP121 T01001050
KILG 201732Z 2018/2118 26012G22KT P6SM SCT060 
     FM202200 28010KT P6SM SCT040 
     FM211600 30012G25KT P6SM SCT050